首页
METAR-TAF:

METAR-TAF

机场 :

Palm Beach International Airport

西棕榈滩, 佛罗里达州, 美国

纬度: 26-41-05N, 经度: 080-05-58W, 海拔: 5米

当前天气观测

该预报发布于25分钟前的02:53 UTC
风速7节,风向
温度 29°C
湿度 70%
气压 1018 hPa
能見度: 16.1公里
散云层高于2500英尺
散云层高于6000英尺

METAR: KPBI 220253Z 09007KT 10SM SCT025 SCT060 29/23 A3007 RMK AO2 SLP181 T02890228 51005

时间: 23:18 (03:18 UTC)

预报

该预报发布于3小时和19分钟前的23:59 UTC
预报有效从22日的 00点(UTC)到 22日的 24点(UTC)
风速8节,风向
能見度: 10公里
散云层高于3000英尺
散云层高于10000英尺
从 22日的 1000点(UTC)
风速6节,风向
能見度: 10公里
少量云层高于2500英尺
散云层高于25000英尺
附近有阵雨
从 22日的 1600点(UTC)
风速12节,风向
能見度: 10公里
散云层高于3000英尺, 积雨云.
多云层高于5000英尺
附近有雷暴

TAF: KPBI 212359Z 2200/2224 09008KT P6SM SCT030 SCT100 FM221000 10006KT P6SM VCSH FEW025 SCT250 FM221600 08012KT P6SM VCTS SCT030CB BKN050

超过4000个机场的气象观测和天气预报(METAR&TAF报告)。

可查询的气象台以黄色和红色小点在地图上表示。

将鼠标移到小点上方,可查看气象台名称。

然后点击查看天气观测和预报。

如需切换地图:点击带黑十字的绿色按钮放大地图;点击带横线的绿色按钮缩小地图;或者点击绿色箭头查看邻近地区的地图。


METAR-TAF: